sensor_id;sensor_type;location;lat;lon;timestamp;pressure;altitude;pressure_sealevel;temperature;humidity
23616;BME280;11985;49.404;7.734;2023-02-12T00:01:00;99251.31;;;3.09;100.00
23616;BME280;11985;49.404;7.734;2023-02-12T00:06:02;99243.50;;;3.09;100.00
23616;BME280;11985;49.404;7.734;2023-02-12T00:11:11;99254.88;;;3.08;100.00
23616;BME280;11985;49.404;7.734;2023-02-12T00:16:15;99250.72;;;3.06;100.00
23616;BME280;11985;49.404;7.734;2023-02-12T00:21:17;99258.44;;;3.07;100.00
23616;BME280;11985;49.404;7.734;2023-02-12T00:26:20;99252.28;;;3.08;100.00
23616;BME280;11985;49.404;7.734;2023-02-12T00:31:24;99262.47;;;3.11;100.00
23616;BME280;11985;49.404;7.734;2023-02-12T00:36:27;99253.09;;;3.09;100.00
23616;BME280;11985;49.404;7.734;2023-02-12T00:41:30;99249.22;;;3.14;100.00
23616;BME280;11985;49.404;7.734;2023-02-12T00:46:32;99253.72;;;3.12;100.00
23616;BME280;11985;49.404;7.734;2023-02-12T00:51:34;99243.75;;;3.06;100.00
23616;BME280;11985;49.404;7.734;2023-02-12T00:56:36;99251.56;;;3.06;100.00
23616;BME280;11985;49.404;7.734;2023-02-12T01:01:38;99255.81;;;3.07;100.00
23616;BME280;11985;49.404;7.734;2023-02-12T01:06:39;99252.28;;;3.08;100.00
23616;BME280;11985;49.404;7.734;2023-02-12T01:11:42;99255.00;;;3.07;100.00
23616;BME280;11985;49.404;7.734;2023-02-12T01:16:44;99274.88;;;3.08;100.00
23616;BME280;11985;49.404;7.734;2023-02-12T01:21:45;99263.75;;;3.06;100.00
23616;BME280;11985;49.404;7.734;2023-02-12T01:26:48;99266.00;;;3.10;100.00
23616;BME280;11985;49.404;7.734;2023-02-12T01:31:50;99273.50;;;3.15;100.00
23616;BME280;11985;49.404;7.734;2023-02-12T01:36:51;99269.56;;;3.09;100.00
23616;BME280;11985;49.404;7.734;2023-02-12T01:41:54;99267.91;;;3.08;100.00
23616;BME280;11985;49.404;7.734;2023-02-12T01:46:57;99263.75;;;3.06;100.00
23616;BME280;11985;49.404;7.734;2023-02-12T01:52:04;99270.00;;;3.03;100.00
23616;BME280;11985;49.404;7.734;2023-02-12T01:57:10;99254.25;;;3.05;100.00
23616;BME280;11985;49.404;7.734;2023-02-12T02:02:13;99262.06;;;3.05;100.00
23616;BME280;11985;49.404;7.734;2023-02-12T02:07:15;99248.97;;;3.06;100.00
23616;BME280;11985;49.404;7.734;2023-02-12T02:12:18;99260.09;;;3.08;100.00
23616;BME280;11985;49.404;7.734;2023-02-12T02:17:46;99247.19;;;3.07;100.00
23616;BME280;11985;49.404;7.734;2023-02-12T02:23:04;99252.28;;;3.08;100.00
23616;BME280;11985;49.404;7.734;2023-02-12T02:28:33;99250.81;;;3.04;100.00
23616;BME280;11985;49.404;7.734;2023-02-12T02:33:50;99244.41;;;2.97;100.00
23616;BME280;11985;49.404;7.734;2023-02-12T02:38:58;99238.25;;;2.98;100.00
23616;BME280;11985;49.404;7.734;2023-02-12T02:44:03;99238.38;;;2.97;100.00
23616;BME280;11985;49.404;7.734;2023-02-12T02:49:12;99232.09;;;2.99;100.00
23616;BME280;11985;49.404;7.734;2023-02-12T02:54:18;99226.69;;;3.02;100.00
23616;BME280;11985;49.404;7.734;2023-02-12T02:59:25;99235.19;;;3.04;100.00
23616;BME280;11985;49.404;7.734;2023-02-12T03:04:34;99231.06;;;3.02;100.00
23616;BME280;11985;49.404;7.734;2023-02-12T03:09:39;99229.50;;;2.99;100.00
23616;BME280;11985;49.404;7.734;2023-02-12T03:14:45;99224.41;;;2.98;100.00
23616;BME280;11985;49.404;7.734;2023-02-12T03:19:52;99226.06;;;2.99;100.00
23616;BME280;11985;49.404;7.734;2023-02-12T03:24:59;99222.34;;;2.90;100.00
23616;BME280;11985;49.404;7.734;2023-02-12T03:30:06;99228.16;;;2.94;100.00
23616;BME280;11985;49.404;7.734;2023-02-12T03:35:15;99226.28;;;2.96;100.00
23616;BME280;11985;49.404;7.734;2023-02-12T03:40:22;99226.28;;;2.96;100.00
23616;BME280;11985;49.404;7.734;2023-02-12T03:45:37;99228.78;;;2.97;100.00
23616;BME280;11985;49.404;7.734;2023-02-12T03:50:46;99239.00;;;3.00;100.00
23616;BME280;11985;49.404;7.734;2023-02-12T03:55:54;99230.22;;;3.01;100.00
23616;BME280;11985;49.404;7.734;2023-02-12T04:00:59;99231.66;;;3.05;100.00
23616;BME280;11985;49.404;7.734;2023-02-12T04:06:02;99232.50;;;3.06;100.00
23616;BME280;11985;49.404;7.734;2023-02-12T04:11:09;99230.81;;;3.05;100.00
23616;BME280;11985;49.404;7.734;2023-02-12T04:16:21;99237.72;;;3.06;100.00
23616;BME280;11985;49.404;7.734;2023-02-12T04:21:37;99244.47;;;3.08;100.00
23616;BME280;11985;49.404;7.734;2023-02-12T04:26:47;99247.78;;;3.10;100.00
23616;BME280;11985;49.404;7.734;2023-02-12T04:31:55;99242.88;;;3.18;100.00
23616;BME280;11985;49.404;7.734;2023-02-12T04:37:03;99250.72;;;3.30;100.00
23616;BME280;11985;49.404;7.734;2023-02-12T04:42:06;99247.94;;;3.44;100.00
23616;BME280;11985;49.404;7.734;2023-02-12T04:47:09;99246.66;;;3.50;100.00
23616;BME280;11985;49.404;7.734;2023-02-12T04:52:13;99243.72;;;3.54;100.00
23616;BME280;11985;49.404;7.734;2023-02-12T04:57:14;99242.53;;;3.47;100.00
23616;BME280;11985;49.404;7.734;2023-02-12T05:02:16;99239.22;;;3.45;100.00
23616;BME280;11985;49.404;7.734;2023-02-12T05:07:19;99246.81;;;3.59;100.00
23616;BME280;11985;49.404;7.734;2023-02-12T05:12:20;99244.16;;;3.72;100.00
23616;BME280;11985;49.404;7.734;2023-02-12T05:17:22;99244.66;;;3.88;100.00
23616;BME280;11985;49.404;7.734;2023-02-12T05:22:25;99239.03;;;4.06;100.00
23616;BME280;11985;49.404;7.734;2023-02-12T05:27:27;99242.69;;;4.14;100.00
23616;BME280;11985;49.404;7.734;2023-02-12T05:32:28;99233.94;;;4.15;100.00
23616;BME280;11985;49.404;7.734;2023-02-12T05:37:33;99238.66;;;4.21;100.00
23616;BME280;11985;49.404;7.734;2023-02-12T05:42:35;99238.44;;;4.24;100.00
23616;BME280;11985;49.404;7.734;2023-02-12T05:47:36;99234.41;;;4.32;100.00
23616;BME280;11985;49.404;7.734;2023-02-12T05:52:39;99244.16;;;4.41;100.00
23616;BME280;11985;49.404;7.734;2023-02-12T05:57:41;99249.13;;;4.44;100.00
23616;BME280;11985;49.404;7.734;2023-02-12T06:02:42;99245.09;;;4.40;100.00
23616;BME280;11985;49.404;7.734;2023-02-12T06:07:45;99243.19;;;4.31;100.00
23616;BME280;11985;49.404;7.734;2023-02-12T06:12:47;99245.31;;;4.26;100.00
23616;BME280;11985;49.404;7.734;2023-02-12T06:17:48;99251.47;;;4.13;100.00
23616;BME280;11985;49.404;7.734;2023-02-12T06:22:51;99251.47;;;4.13;100.00
23616;BME280;11985;49.404;7.734;2023-02-12T06:27:53;99258.25;;;4.27;100.00
23616;BME280;11985;49.404;7.734;2023-02-12T06:32:54;99262.28;;;4.42;100.00
23616;BME280;11985;49.404;7.734;2023-02-12T06:37:57;99256.72;;;4.47;100.00
23616;BME280;11985;49.404;7.734;2023-02-12T06:42:59;99265.97;;;4.51;100.00
23616;BME280;11985;49.404;7.734;2023-02-12T06:48:00;99264.19;;;4.52;100.00
23616;BME280;11985;49.404;7.734;2023-02-12T06:53:03;99268.59;;;4.51;100.00
23616;BME280;11985;49.404;7.734;2023-02-12T06:58:04;99268.59;;;4.51;100.00
23616;BME280;11985;49.404;7.734;2023-02-12T07:03:06;99268.13;;;4.46;100.00
23616;BME280;11985;49.404;7.734;2023-02-12T07:08:09;99278.91;;;4.41;100.00
23616;BME280;11985;49.404;7.734;2023-02-12T07:13:10;99284.25;;;4.40;100.00
23616;BME280;11985;49.404;7.734;2023-02-12T07:18:12;99291.00;;;4.54;100.00
23616;BME280;11985;49.404;7.734;2023-02-12T07:23:15;99297.88;;;4.77;100.00
23616;BME280;11985;49.404;7.734;2023-02-12T07:28:16;99304.88;;;4.88;100.00
23616;BME280;11985;49.404;7.734;2023-02-12T07:33:18;99293.50;;;4.89;100.00
23616;BME280;11985;49.404;7.734;2023-02-12T07:38:21;99297.75;;;5.01;100.00
23616;BME280;11985;49.404;7.734;2023-02-12T07:43:23;99286.59;;;4.99;100.00
23616;BME280;11985;49.404;7.734;2023-02-12T07:48:25;99295.38;;;4.87;100.00
23616;BME280;11985;49.404;7.734;2023-02-12T07:53:27;99296.81;;;4.80;100.00
23616;BME280;11985;49.404;7.734;2023-02-12T07:58:29;99296.69;;;4.70;100.00
23616;BME280;11985;49.404;7.734;2023-02-12T08:03:30;99305.34;;;4.59;100.00
23616;BME280;11985;49.404;7.734;2023-02-12T08:08:33;99302.25;;;4.54;100.00
23616;BME280;11985;49.404;7.734;2023-02-12T08:13:38;99295.75;;;4.60;100.00
23616;BME280;11985;49.404;7.734;2023-02-12T08:18:39;99299.19;;;4.60;100.00
23616;BME280;11985;49.404;7.734;2023-02-12T08:23:43;99303.22;;;4.64;100.00
23616;BME280;11985;49.404;7.734;2023-02-12T08:28:47;99304.88;;;4.76;100.00
23616;BME280;11985;49.404;7.734;2023-02-12T08:33:50;99299.91;;;4.85;100.00
23616;BME280;11985;49.404;7.734;2023-02-12T08:38:56;99303.97;;;4.78;100.00
23616;BME280;11985;49.404;7.734;2023-02-12T08:44:00;99310.47;;;4.72;100.00
23616;BME280;11985;49.404;7.734;2023-02-12T08:49:04;99313.19;;;4.70;100.00
23616;BME280;11985;49.404;7.734;2023-02-12T08:54:11;99324.84;;;4.78;100.00
23616;BME280;11985;49.404;7.734;2023-02-12T08:59:14;99312.00;;;4.86;100.00
23616;BME280;11985;49.404;7.734;2023-02-12T09:04:19;99318.53;;;4.80;100.00
23616;BME280;11985;49.404;7.734;2023-02-12T09:09:22;99316.88;;;4.79;100.00
23616;BME280;11985;49.404;7.734;2023-02-12T09:14:24;99316.53;;;4.95;100.00
23616;BME280;11985;49.404;7.734;2023-02-12T09:19:25;99311.88;;;4.98;100.00
23616;BME280;11985;49.404;7.734;2023-02-12T09:24:28;99314.63;;;4.97;100.00
23616;BME280;11985;49.404;7.734;2023-02-12T09:29:30;99309.63;;;4.94;100.00
23616;BME280;11985;49.404;7.734;2023-02-12T09:34:33;99317.34;;;4.95;100.00
23616;BME280;11985;49.404;7.734;2023-02-12T09:39:36;99318.16;;;5.07;100.00
23616;BME280;11985;49.404;7.734;2023-02-12T09:44:42;99319.59;;;5.11;100.00
23616;BME280;11985;49.404;7.734;2023-02-12T09:49:57;99323.25;;;5.09;100.00
23616;BME280;11985;49.404;7.734;2023-02-12T09:55:03;99323.59;;;5.15;100.00
23616;BME280;11985;49.404;7.734;2023-02-12T10:00:08;99317.50;;;5.37;100.00
23616;BME280;11985;49.404;7.734;2023-02-12T10:05:14;99321.41;;;5.43;100.00
23616;BME280;11985;49.404;7.734;2023-02-12T10:10:26;99320.22;;;5.47;100.00
23616;BME280;11985;49.404;7.734;2023-02-12T10:15:37;99315.97;;;5.46;100.00
23616;BME280;11985;49.404;7.734;2023-02-12T10:20:54;99323.50;;;5.60;100.00
23616;BME280;11985;49.404;7.734;2023-02-12T10:26:01;99326.34;;;5.68;100.00
23616;BME280;11985;49.404;7.734;2023-02-12T10:31:10;99330.63;;;5.69;100.00
23616;BME280;11985;49.404;7.734;2023-02-12T10:36:18;99315.88;;;5.68;100.00
23616;BME280;11985;49.404;7.734;2023-02-12T10:41:29;99315.88;;;5.68;100.00
23616;BME280;11985;49.404;7.734;2023-02-12T10:46:32;99311.81;;;5.75;100.00
23616;BME280;11985;49.404;7.734;2023-02-12T10:51:53;99303.22;;;5.96;100.00
23616;BME280;11985;49.404;7.734;2023-02-12T10:56:59;99293.19;;;6.22;100.00
23616;BME280;11985;49.404;7.734;2023-02-12T11:02:19;99297.72;;;6.41;100.00
23616;BME280;11985;49.404;7.734;2023-02-12T11:07:22;99284.34;;;6.44;100.00
23616;BME280;11985;49.404;7.734;2023-02-12T11:12:33;99288.97;;;6.30;100.00
23616;BME280;11985;49.404;7.734;2023-02-12T11:17:38;99291.88;;;6.27;100.00
23616;BME280;11985;49.404;7.734;2023-02-12T11:22:48;99281.63;;;6.24;100.00
23616;BME280;11985;49.404;7.734;2023-02-12T11:28:04;99268.88;;;6.10;100.00
23616;BME280;11985;49.404;7.734;2023-02-12T11:33:18;99268.69;;;6.02;100.00
23616;BME280;11985;49.404;7.734;2023-02-12T11:38:31;99267.81;;;6.13;100.00
23616;BME280;11985;49.404;7.734;2023-02-12T11:43:35;99257.66;;;6.19;100.00
23616;BME280;11985;49.404;7.734;2023-02-12T11:48:39;99259.34;;;6.30;100.00
23616;BME280;11985;49.404;7.734;2023-02-12T11:53:48;99262.03;;;6.40;100.00
23616;BME280;11985;49.404;7.734;2023-02-12T11:58:52;99259.50;;;6.59;100.00
23616;BME280;11985;49.404;7.734;2023-02-12T12:03:59;99257.84;;;6.58;100.00
23616;BME280;11985;49.404;7.734;2023-02-12T12:09:08;99255.88;;;6.50;100.00
23616;BME280;11985;49.404;7.734;2023-02-12T12:14:19;99249.03;;;6.59;100.00
23616;BME280;11985;49.404;7.734;2023-02-12T12:19:27;99240.38;;;6.68;100.00
23616;BME280;11985;49.404;7.734;2023-02-12T12:24:51;99234.88;;;6.71;100.00
23616;BME280;11985;49.404;7.734;2023-02-12T12:29:59;99235.03;;;6.79;100.00
23616;BME280;11985;49.404;7.734;2023-02-12T12:35:10;99238.34;;;6.81;100.00
23616;BME280;11985;49.404;7.734;2023-02-12T12:40:25;99235.91;;;6.90;100.00
23616;BME280;11985;49.404;7.734;2023-02-12T12:45:55;99235.50;;;7.04;100.00
23616;BME280;11985;49.404;7.734;2023-02-12T12:51:14;99231.22;;;6.93;100.00
23616;BME280;11985;49.404;7.734;2023-02-12T12:56:33;99224.91;;;7.05;100.00
23616;BME280;11985;49.404;7.734;2023-02-12T13:02:11;99211.69;;;7.46;100.00
23616;BME280;11985;49.404;7.734;2023-02-12T13:07:37;99212.78;;;7.72;100.00
23616;BME280;11985;49.404;7.734;2023-02-12T13:13:03;99208.22;;;7.74;100.00
23616;BME280;11985;49.404;7.734;2023-02-12T13:18:22;99214.72;;;7.80;100.00
23616;BME280;11985;49.404;7.734;2023-02-12T13:23:35;99199.69;;;7.72;100.00
23616;BME280;11985;49.404;7.734;2023-02-12T13:28:41;99203.66;;;7.76;100.00
23616;BME280;11985;49.404;7.734;2023-02-12T13:33:49;99189.72;;;7.76;100.00
23616;BME280;11985;49.404;7.734;2023-02-12T13:38:56;99189.34;;;7.61;100.00
23616;BME280;11985;49.404;7.734;2023-02-12T13:44:06;99181.16;;;7.74;100.00
23616;BME280;11985;49.404;7.734;2023-02-12T13:49:24;99185.69;;;7.81;100.00
23616;BME280;11985;49.404;7.734;2023-02-12T13:54:39;99186.81;;;7.79;100.00
23616;BME280;11985;49.404;7.734;2023-02-12T13:59:46;99176.28;;;7.98;100.00
23616;BME280;11985;49.404;7.734;2023-02-12T14:04:55;99172.31;;;8.21;100.00
23616;BME280;11985;49.404;7.734;2023-02-12T14:10:01;99173.44;;;8.38;99.45
23616;BME280;11985;49.404;7.734;2023-02-12T14:15:05;99167.59;;;8.44;97.63
23616;BME280;11985;49.404;7.734;2023-02-12T14:20:21;99167.75;;;8.33;97.39
23616;BME280;11985;49.404;7.734;2023-02-12T14:25:29;99167.47;;;8.27;97.24
23616;BME280;11985;49.404;7.734;2023-02-12T14:30:33;99171.84;;;8.08;97.40
23616;BME280;11985;49.404;7.734;2023-02-12T14:35:38;99167.72;;;8.06;97.72
23616;BME280;11985;49.404;7.734;2023-02-12T14:40:42;99169.75;;;8.12;97.91
23616;BME280;11985;49.404;7.734;2023-02-12T14:45:46;99155.72;;;8.40;96.95
23616;BME280;11985;49.404;7.734;2023-02-12T14:50:49;99160.00;;;8.32;95.71
23616;BME280;11985;49.404;7.734;2023-02-12T14:55:52;99154.09;;;8.20;95.79
23616;BME280;11985;49.404;7.734;2023-02-12T15:00:55;99151.88;;;8.25;95.75
23616;BME280;11985;49.404;7.734;2023-02-12T15:06:03;99161.81;;;8.21;96.58
23616;BME280;11985;49.404;7.734;2023-02-12T15:11:14;99157.44;;;8.22;97.20
23616;BME280;11985;49.404;7.734;2023-02-12T15:16:31;99157.66;;;7.91;96.95
23616;BME280;11985;49.404;7.734;2023-02-12T15:21:36;99149.84;;;7.62;98.80
23616;BME280;11985;49.404;7.734;2023-02-12T15:26:39;99148.63;;;7.47;100.00
23616;BME280;11985;49.404;7.734;2023-02-12T15:31:42;99156.50;;;7.37;100.00
23616;BME280;11985;49.404;7.734;2023-02-12T15:36:45;99154.44;;;7.31;100.00
23616;BME280;11985;49.404;7.734;2023-02-12T15:41:47;99160.09;;;7.36;100.00
23616;BME280;11985;49.404;7.734;2023-02-12T15:46:57;99157.31;;;7.48;100.00
23616;BME280;11985;49.404;7.734;2023-02-12T15:52:03;99160.91;;;7.47;100.00
23616;BME280;11985;49.404;7.734;2023-02-12T15:57:10;99155.81;;;7.35;100.00
23616;BME280;11985;49.404;7.734;2023-02-12T16:02:18;99160.91;;;7.27;100.00
23616;BME280;11985;49.404;7.734;2023-02-12T16:07:22;99157.19;;;7.01;100.00
23616;BME280;11985;49.404;7.734;2023-02-12T16:12:28;99151.91;;;6.81;100.00
23616;BME280;11985;49.404;7.734;2023-02-12T16:17:33;99151.50;;;6.67;100.00
23616;BME280;11985;49.404;7.734;2023-02-12T16:22:37;99151.47;;;6.57;100.00
23616;BME280;11985;49.404;7.734;2023-02-12T16:27:40;99149.22;;;6.43;100.00
23616;BME280;11985;49.404;7.734;2023-02-12T16:32:42;99153.84;;;6.29;100.00
23616;BME280;11985;49.404;7.734;2023-02-12T16:37:47;99154.91;;;6.17;100.00
23616;BME280;11985;49.404;7.734;2023-02-12T16:42:56;99159.88;;;6.20;100.00
23616;BME280;11985;49.404;7.734;2023-02-12T16:47:59;99159.09;;;6.29;100.00
23616;BME280;11985;49.404;7.734;2023-02-12T16:53:06;99155.78;;;6.27;100.00
23616;BME280;11985;49.404;7.734;2023-02-12T16:58:09;99168.53;;;6.11;100.00
23616;BME280;11985;49.404;7.734;2023-02-12T17:03:11;99166.25;;;5.97;100.00
23616;BME280;11985;49.404;7.734;2023-02-12T17:08:17;99170.63;;;5.75;100.00
23616;BME280;11985;49.404;7.734;2023-02-12T17:13:19;99172.84;;;5.59;100.00
23616;BME280;11985;49.404;7.734;2023-02-12T17:18:21;99182.22;;;5.41;100.00
23616;BME280;11985;49.404;7.734;2023-02-12T17:23:24;99183.25;;;5.28;100.00
23616;BME280;11985;49.404;7.734;2023-02-12T17:28:26;99183.47;;;5.25;100.00
23616;BME280;11985;49.404;7.734;2023-02-12T17:33:28;99192.91;;;5.38;100.00
23616;BME280;11985;49.404;7.734;2023-02-12T17:38:31;99194.34;;;5.42;100.00
23616;BME280;11985;49.404;7.734;2023-02-12T17:43:33;99190.13;;;5.29;100.00
23616;BME280;11985;49.404;7.734;2023-02-12T17:48:35;99192.28;;;5.24;100.00
23616;BME280;11985;49.404;7.734;2023-02-12T17:53:38;99196.84;;;5.11;100.00
23616;BME280;11985;49.404;7.734;2023-02-12T17:58:41;99197.56;;;5.02;100.00
23616;BME280;11985;49.404;7.734;2023-02-12T18:03:43;99194.72;;;4.94;100.00
23616;BME280;11985;49.404;7.734;2023-02-12T18:08:46;99194.03;;;4.92;100.00
23616;BME280;11985;49.404;7.734;2023-02-12T18:13:50;99199.03;;;4.95;100.00
23616;BME280;11985;49.404;7.734;2023-02-12T18:18:52;99194.00;;;5.03;100.00
23616;BME280;11985;49.404;7.734;2023-02-12T18:23:55;99196.28;;;4.96;100.00
23616;BME280;11985;49.404;7.734;2023-02-12T18:28:57;99195.13;;;4.89;100.00
23616;BME280;11985;49.404;7.734;2023-02-12T18:33:59;99193.09;;;4.82;100.00
23616;BME280;11985;49.404;7.734;2023-02-12T18:39:03;99199.91;;;4.73;100.00
23616;BME280;11985;49.404;7.734;2023-02-12T18:44:04;99192.78;;;4.64;100.00
23616;BME280;11985;49.404;7.734;2023-02-12T18:49:06;99188.03;;;4.58;100.00
23616;BME280;11985;49.404;7.734;2023-02-12T18:54:12;99193.88;;;4.61;100.00
23616;BME280;11985;49.404;7.734;2023-02-12T18:59:14;99186.47;;;4.66;100.00
23616;BME280;11985;49.404;7.734;2023-02-12T19:04:16;99188.81;;;4.92;100.00
23616;BME280;11985;49.404;7.734;2023-02-12T19:09:24;99193.25;;;5.12;100.00
23616;BME280;11985;49.404;7.734;2023-02-12T19:14:26;99190.94;;;5.30;100.00
23616;BME280;11985;49.404;7.734;2023-02-12T19:19:28;99183.88;;;5.42;100.00
23616;BME280;11985;49.404;7.734;2023-02-12T19:24:31;99181.97;;;5.44;100.00
23616;BME280;11985;49.404;7.734;2023-02-12T19:29:33;99179.78;;;5.49;100.00
23616;BME280;11985;49.404;7.734;2023-02-12T19:34:34;99184.56;;;5.44;100.00
23616;BME280;11985;49.404;7.734;2023-02-12T19:39:37;99187.00;;;5.36;100.00
23616;BME280;11985;49.404;7.734;2023-02-12T19:44:39;99191.53;;;5.34;100.00
23616;BME280;11985;49.404;7.734;2023-02-12T19:49:41;99194.38;;;5.30;100.00
23616;BME280;11985;49.404;7.734;2023-02-12T19:54:44;99199.41;;;5.22;100.00
23616;BME280;11985;49.404;7.734;2023-02-12T19:59:46;99190.66;;;5.12;100.00
23616;BME280;11985;49.404;7.734;2023-02-12T20:04:47;99189.94;;;5.10;100.00
23616;BME280;11985;49.404;7.734;2023-02-12T20:09:50;99196.84;;;5.11;100.00
23616;BME280;11985;49.404;7.734;2023-02-12T20:14:52;99188.81;;;5.24;100.00
23616;BME280;11985;49.404;7.734;2023-02-12T20:19:54;99182.28;;;5.29;100.00
23616;BME280;11985;49.404;7.734;2023-02-12T20:24:57;99185.13;;;5.26;100.00
23616;BME280;11985;49.404;7.734;2023-02-12T20:29:59;99184.66;;;5.21;100.00
23616;BME280;11985;49.404;7.734;2023-02-12T20:35:00;99190.66;;;5.12;100.00
23616;BME280;11985;49.404;7.734;2023-02-12T20:40:04;99182.38;;;5.07;100.00
23616;BME280;11985;49.404;7.734;2023-02-12T20:45:07;99187.72;;;5.06;100.00
23616;BME280;11985;49.404;7.734;2023-02-12T20:50:09;99185.47;;;5.01;100.00
23616;BME280;11985;49.404;7.734;2023-02-12T20:55:13;99196.75;;;5.01;100.00
23616;BME280;11985;49.404;7.734;2023-02-12T21:00:15;99189.97;;;4.99;100.00
23616;BME280;11985;49.404;7.734;2023-02-12T21:05:17;99200.22;;;4.91;100.00
23616;BME280;11985;49.404;7.734;2023-02-12T21:10:19;99193.34;;;4.90;100.00
23616;BME280;11985;49.404;7.734;2023-02-12T21:15:22;99190.22;;;4.96;100.00
23616;BME280;11985;49.404;7.734;2023-02-12T21:20:24;99187.13;;;5.02;100.00
23616;BME280;11985;49.404;7.734;2023-02-12T21:25:26;99186.03;;;5.04;100.00
23616;BME280;11985;49.404;7.734;2023-02-12T21:30:28;99190.69;;;5.01;100.00
23616;BME280;11985;49.404;7.734;2023-02-12T21:35:29;99185.69;;;4.98;100.00
23616;BME280;11985;49.404;7.734;2023-02-12T21:40:32;99190.09;;;4.97;100.00
23616;BME280;11985;49.404;7.734;2023-02-12T21:45:34;99189.28;;;4.97;100.00
23616;BME280;11985;49.404;7.734;2023-02-12T21:50:35;99187.75;;;4.94;100.00
23616;BME280;11985;49.404;7.734;2023-02-12T21:55:38;99188.81;;;4.92;100.00
23616;BME280;11985;49.404;7.734;2023-02-12T22:00:40;99190.81;;;4.88;100.00
23616;BME280;11985;49.404;7.734;2023-02-12T22:05:42;99181.69;;;4.83;100.00
23616;BME280;11985;49.404;7.734;2023-02-12T22:10:44;99187.19;;;4.80;100.00
23616;BME280;11985;49.404;7.734;2023-02-12T22:15:46;99182.19;;;4.76;100.00
23616;BME280;11985;49.404;7.734;2023-02-12T22:20:47;99186.84;;;4.73;100.00
23616;BME280;11985;49.404;7.734;2023-02-12T22:25:50;99181.97;;;4.68;100.00
23616;BME280;11985;49.404;7.734;2023-02-12T22:30:52;99177.94;;;4.64;100.00
23616;BME280;11985;49.404;7.734;2023-02-12T22:35:53;99181.88;;;4.59;100.00
23616;BME280;11985;49.404;7.734;2023-02-12T22:40:56;99189.09;;;4.55;100.00
23616;BME280;11985;49.404;7.734;2023-02-12T22:45:58;99193.00;;;4.49;100.00
23616;BME280;11985;49.404;7.734;2023-02-12T22:51:06;99182.00;;;4.46;100.00
23616;BME280;11985;49.404;7.734;2023-02-12T22:56:09;99185.09;;;4.40;100.00
23616;BME280;11985;49.404;7.734;2023-02-12T23:01:13;99191.72;;;4.33;100.00
23616;BME280;11985;49.404;7.734;2023-02-12T23:06:17;99185.47;;;4.24;100.00
23616;BME280;11985;49.404;7.734;2023-02-12T23:11:20;99198.25;;;4.16;100.00
23616;BME280;11985;49.404;7.734;2023-02-12T23:16:23;99195.28;;;4.09;100.00
23616;BME280;11985;49.404;7.734;2023-02-12T23:21:26;99194.56;;;3.96;100.00
23616;BME280;11985;49.404;7.734;2023-02-12T23:26:29;99207.59;;;3.85;100.00
23616;BME280;11985;49.404;7.734;2023-02-12T23:31:31;99196.06;;;3.76;100.00
23616;BME280;11985;49.404;7.734;2023-02-12T23:36:32;99198.06;;;3.61;100.00
23616;BME280;11985;49.404;7.734;2023-02-12T23:41:35;99188.31;;;3.52;100.00
23616;BME280;11985;49.404;7.734;2023-02-12T23:46:37;99188.75;;;3.46;100.00
23616;BME280;11985;49.404;7.734;2023-02-12T23:51:39;99184.00;;;3.40;100.00
23616;BME280;11985;49.404;7.734;2023-02-12T23:56:41;99169.88;;;3.31;100.00
